Time;durP1;ratioP1;P1;durP2;ratioP2;P2;SDS_P1;SDS_P2;PMS_P1;PMS_P2;Temp;Humidity;BMP_temperature;BMP_pressure;BME280_temperature;BME280_humidity;BME280_pressure;Samples;Min_cycle;Max_cycle;Signal;HPM_P1;HPM_P2
2022/08/20 00:02:15;;;;;;;11.10;5.20;;;17.70;99.90;;;;;;6093777;23;20174;-60
2022/08/20 00:04:46;;;;;;;12.37;4.83;;;17.60;99.90;;;;;;6094990;23;20182;-60
2022/08/20 00:07:14;;;;;;;14.00;5.03;;;17.50;99.90;;;;;;6095868;23;20271;-60
2022/08/20 00:09:44;;;;;;;10.57;4.77;;;17.40;99.90;;;;;;6095458;23;20231;-60
2022/08/20 00:12:15;;;;;;;10.90;4.70;;;17.40;99.90;;;;;;6094685;23;20246;-60
2022/08/20 00:14:44;;;;;;;12.87;4.57;;;17.30;99.90;;;;;;6117223;23;20178;-60
2022/08/20 00:17:12;;;;;;;10.87;4.40;;;17.30;99.90;;;;;;6092908;23;20278;-60
2022/08/20 00:19:41;;;;;;;11.10;5.13;;;17.30;99.90;;;;;;6096182;23;20172;-60
2022/08/20 00:22:12;;;;;;;12.77;5.03;;;17.30;99.90;;;;;;6095613;23;20261;-60
2022/08/20 00:24:40;;;;;;;9.57;4.23;;;17.30;99.90;;;;;;6117602;23;20254;-60
2022/08/20 00:27:08;;;;;;;16.57;5.17;;;17.30;99.90;;;;;;6095688;23;20223;-60
2022/08/20 00:29:37;;;;;;;11.37;4.80;;;17.40;99.90;;;;;;6094470;23;20167;-60
2022/08/20 00:32:05;;;;;;;11.00;4.50;;;17.40;99.90;;;;;;6118369;23;20175;-60
2022/08/20 00:34:33;;;;;;;11.03;4.77;;;17.40;99.90;;;;;;6095056;23;20199;-60
2022/08/20 00:37:02;;;;;;;10.23;4.63;;;17.40;99.90;;;;;;6093551;23;20163;-60
2022/08/20 00:39:34;;;;;;;15.23;5.03;;;17.40;99.90;;;;;;6095015;23;20299;-60
2022/08/20 00:42:04;;;;;;;14.13;4.90;;;17.40;99.90;;;;;;6094655;23;20569;-60
2022/08/20 00:44:33;;;;;;;13.20;5.20;;;17.50;99.90;;;;;;6095121;23;20166;-60
2022/08/20 00:47:02;;;;;;;15.53;4.77;;;17.40;99.90;;;;;;6093693;23;20715;-60
2022/08/20 00:49:32;;;;;;;13.63;4.90;;;17.50;99.90;;;;;;6094144;23;20257;-60
2022/08/20 00:52:04;;;;;;;10.67;4.47;;;17.40;99.90;;;;;;6095411;23;20198;-60
2022/08/20 00:54:38;;;;;;;9.67;4.33;;;17.40;99.90;;;;;;6094555;23;20164;-60
2022/08/20 00:57:10;;;;;;;11.63;4.57;;;17.30;99.90;;;;;;6093021;23;20248;-60
2022/08/20 00:59:42;;;;;;;13.80;4.80;;;17.20;99.90;;;;;;6095678;23;20642;-60
2022/08/20 01:02:13;;;;;;;10.63;4.47;;;17.10;99.90;;;;;;6093734;23;20187;-60
2022/08/20 01:04:44;;;;;;;10.80;4.13;;;17.10;99.90;;;;;;6092818;23;20621;-60
2022/08/20 01:07:13;;;;;;;11.73;4.40;;;17.00;99.90;;;;;;6093664;23;20268;-60
2022/08/20 01:09:43;;;;;;;12.40;4.60;;;16.90;99.90;;;;;;6093951;23;20229;-60
2022/08/20 01:12:27;;;;;;;16.00;4.87;;;16.90;99.90;;;;;;6094803;23;20244;-60
2022/08/20 01:14:58;;;;;;;12.20;5.10;;;16.80;99.90;;;;;;6092173;23;20250;-60
2022/08/20 01:17:31;;;;;;;14.13;4.83;;;16.70;99.90;;;;;;6094299;23;20266;-60
2022/08/20 01:20:04;;;;;;;11.97;4.50;;;16.70;99.90;;;;;;6095068;23;20249;-60
2022/08/20 01:25:46;;;;;;;18.67;5.17;;;16.60;99.90;;;;;;6094012;23;20203;-60
2022/08/20 01:28:19;;;;;;;20.00;5.17;;;16.50;99.90;;;;;;6092616;23;20267;-60
2022/08/20 01:30:47;;;;;;;7.50;4.90;;;16.40;99.90;;;;;;6094568;23;20252;-60
2022/08/20 01:33:17;;;;;;;8.27;4.40;;;16.40;99.90;;;;;;6094768;23;20229;-60
2022/08/20 01:35:46;;;;;;;15.30;4.97;;;16.40;99.90;;;;;;6093383;23;20685;-60
2022/08/20 01:38:14;;;;;;;10.67;5.03;;;16.30;99.90;;;;;;6094087;23;20498;-60
2022/08/20 01:41:15;;;;;;;12.70;4.67;;;16.30;99.90;;;;;;6093437;23;20176;-60
2022/08/20 01:43:46;;;;;;;11.33;4.87;;;16.30;99.90;;;;;;6093957;23;20191;-60
2022/08/20 01:46:17;;;;;;;9.63;4.60;;;16.20;99.90;;;;;;6094734;23;20155;-60
2022/08/20 01:48:47;;;;;;;11.70;5.03;;;16.20;99.90;;;;;;6094242;23;20226;-60
2022/08/20 01:51:19;;;;;;;15.27;4.93;;;16.10;99.90;;;;;;6094591;23;20551;-60
2022/08/20 01:53:49;;;;;;;9.80;4.90;;;16.10;99.90;;;;;;6093690;23;20620;-60
2022/08/20 01:56:22;;;;;;;12.67;4.67;;;16.10;99.90;;;;;;6091854;23;20175;-60
2022/08/20 01:58:53;;;;;;;11.53;5.30;;;16.00;99.90;;;;;;6093755;23;20245;-60
2022/08/20 02:01:28;;;;;;;8.10;4.93;;;16.00;99.90;;;;;;6094284;23;20159;-60
2022/08/20 02:03:57;;;;;;;11.40;5.17;;;16.00;99.90;;;;;;6094183;23;20242;-60
2022/08/20 02:06:27;;;;;;;15.73;5.70;;;15.90;99.90;;;;;;6093341;23;20174;-60
2022/08/20 02:08:57;;;;;;;12.90;5.17;;;15.90;99.90;;;;;;6093393;23;20619;-60
2022/08/20 02:11:29;;;;;;;11.83;5.23;;;15.90;99.90;;;;;;6092465;23;20168;-60
2022/08/20 02:13:58;;;;;;;14.40;5.90;;;15.80;99.90;;;;;;6093495;23;20280;-60
2022/08/20 02:16:30;;;;;;;10.30;5.53;;;15.80;99.90;;;;;;6092247;23;20209;-60
2022/08/20 02:19:02;;;;;;;20.80;6.23;;;15.80;99.90;;;;;;6116190;23;20263;-60
2022/08/20 02:21:32;;;;;;;14.50;5.40;;;15.80;99.90;;;;;;6093471;23;20172;-60
2022/08/20 02:24:01;;;;;;;16.53;6.27;;;15.80;99.90;;;;;;6094401;23;20206;-60
2022/08/20 02:26:36;;;;;;;14.00;5.47;;;15.80;99.90;;;;;;6092279;23;20230;-60
2022/08/20 02:29:06;;;;;;;23.43;6.30;;;15.70;99.90;;;;;;6093502;23;20231;-60
2022/08/20 02:31:36;;;;;;;20.33;6.10;;;15.70;99.90;;;;;;6093436;23;20247;-60
2022/08/20 02:34:24;;;;;;;14.60;6.20;;;15.60;99.90;;;;;;6093993;23;20265;-60
2022/08/20 02:36:53;;;;;;;19.87;6.90;;;15.60;99.90;;;;;;6093348;23;20275;-60
2022/08/20 02:39:21;;;;;;;12.57;6.53;;;15.60;99.90;;;;;;6092016;23;20171;-60
2022/08/20 02:41:50;;;;;;;21.67;6.67;;;15.60;99.90;;;;;;6092764;23;20172;-60
2022/08/20 02:44:20;;;;;;;15.17;6.47;;;15.60;99.90;;;;;;6093837;23;20169;-60
2022/08/20 02:46:49;;;;;;;13.93;6.87;;;15.50;99.90;;;;;;6093434;23;20171;-60
2022/08/20 02:49:18;;;;;;;13.67;6.03;;;15.50;99.90;;;;;;6093694;23;20270;-60
2022/08/20 02:51:47;;;;;;;12.33;6.47;;;15.50;99.90;;;;;;6093189;23;20591;-60
2022/08/20 02:54:16;;;;;;;16.33;7.40;;;15.50;99.90;;;;;;6092502;23;20172;-60
2022/08/20 02:56:44;;;;;;;15.30;7.20;;;15.40;99.90;;;;;;6114485;23;20175;-60
2022/08/20 02:59:14;;;;;;;16.33;7.23;;;15.40;99.90;;;;;;6092954;23;20239;-60
2022/08/20 03:01:47;;;;;;;14.07;6.43;;;15.40;99.90;;;;;;6093552;23;20152;-61
2022/08/20 03:04:28;;;;;;;16.50;7.07;;;15.30;99.90;;;;;;6090896;23;20672;-60
2022/08/20 03:06:57;;;;;;;13.83;7.37;;;15.30;99.90;;;;;;6116181;23;20385;-60
2022/08/20 03:09:25;;;;;;;14.60;7.37;;;15.20;99.90;;;;;;6093117;23;20229;-60
2022/08/20 03:11:56;;;;;;;16.53;7.60;;;15.20;99.90;;;;;;6092563;23;20160;-60
2022/08/20 03:14:26;;;;;;;16.03;7.33;;;15.20;99.90;;;;;;6091485;23;20176;-60
2022/08/20 03:16:55;;;;;;;16.90;7.30;;;15.20;99.90;;;;;;6093368;23;20365;-60
2022/08/20 03:19:24;;;;;;;19.23;7.13;;;15.20;99.90;;;;;;6091887;23;20260;-60
2022/08/20 03:21:52;;;;;;;17.27;7.87;;;15.10;99.90;;;;;;6092772;23;20689;-60
2022/08/20 03:24:21;;;;;;;16.10;7.40;;;15.00;99.90;;;;;;6092208;23;20206;-60
2022/08/20 03:26:49;;;;;;;17.30;8.00;;;15.00;99.90;;;;;;6092734;23;20174;-60
2022/08/20 03:29:17;;;;;;;13.33;7.63;;;15.00;99.90;;;;;;6114824;23;20803;-60
2022/08/20 03:31:47;;;;;;;16.40;7.77;;;15.00;99.90;;;;;;6093321;23;20247;-60
2022/08/20 03:34:16;;;;;;;17.73;8.10;;;14.90;99.90;;;;;;6091900;23;20551;-60
2022/08/20 03:36:44;;;;;;;18.37;7.53;;;14.90;99.90;;;;;;6092955;23;20171;-60
2022/08/20 03:39:12;;;;;;;14.90;7.37;;;14.80;99.90;;;;;;6092943;23;20647;-60
2022/08/20 03:41:41;;;;;;;11.97;7.53;;;14.80;99.90;;;;;;6114985;23;20253;-60
2022/08/20 03:44:09;;;;;;;19.07;7.40;;;14.80;99.90;;;;;;6092522;23;20171;-60
2022/08/20 03:46:38;;;;;;;16.93;8.03;;;14.80;99.90;;;;;;6093431;23;20239;-60
2022/08/20 03:49:08;;;;;;;15.37;8.27;;;14.70;99.90;;;;;;6093775;23;20277;-60
2022/08/20 03:51:36;;;;;;;14.63;7.83;;;14.70;99.90;;;;;;6093306;23;20203;-60
2022/08/20 03:54:24;;;;;;;16.77;7.87;;;14.70;99.90;;;;;;6093249;23;20172;-60
2022/08/20 03:57:00;;;;;;;15.07;7.97;;;14.60;99.90;;;;;;6093701;23;20174;-60
2022/08/20 03:59:31;;;;;;;17.67;8.17;;;14.60;99.90;;;;;;6092165;23;20174;-60
2022/08/20 04:02:00;;;;;;;17.20;8.40;;;14.50;99.90;;;;;;6115538;23;20475;-60
2022/08/20 04:04:30;;;;;;;19.10;8.73;;;14.50;99.90;;;;;;6092079;23;20496;-60
2022/08/20 04:06:59;;;;;;;15.37;8.03;;;14.50;99.90;;;;;;6094560;23;20246;-60
2022/08/20 04:09:28;;;;;;;13.60;8.13;;;14.50;99.90;;;;;;6093911;23;20267;-60
2022/08/20 04:11:59;;;;;;;22.07;9.00;;;14.50;99.90;;;;;;6094206;23;20242;-60
2022/08/20 04:14:27;;;;;;;20.83;8.27;;;14.40;99.90;;;;;;6092395;23;20167;-60
2022/08/20 04:16:57;;;;;;;17.83;8.70;;;14.40;99.90;;;;;;6093744;23;20222;-60
2022/08/20 04:19:25;;;;;;;19.83;8.23;;;14.50;99.90;;;;;;6094700;23;20191;-61
2022/08/20 04:22:01;;;;;;;21.07;8.97;;;14.40;99.90;;;;;;6094008;23;20168;-60
2022/08/20 04:24:29;;;;;;;20.27;8.67;;;14.40;99.90;;;;;;6091114;23;20256;-60
2022/08/20 04:27:03;;;;;;;19.70;8.67;;;14.40;99.90;;;;;;6094067;23;20605;-60
2022/08/20 04:29:32;;;;;;;12.83;8.53;;;14.40;99.90;;;;;;6091625;23;20195;-60
2022/08/20 04:32:03;;;;;;;25.00;9.03;;;14.30;99.90;;;;;;6094245;23;20171;-60
2022/08/20 04:34:33;;;;;;;24.10;8.43;;;14.30;99.90;;;;;;6095139;23;20595;-60
2022/08/20 04:37:04;;;;;;;16.87;8.33;;;14.20;99.90;;;;;;6094483;23;20167;-60
2022/08/20 04:39:32;;;;;;;20.50;8.70;;;14.20;99.90;;;;;;6093943;23;20239;-60
2022/08/20 04:42:01;;;;;;;13.70;8.93;;;14.20;99.90;;;;;;6093996;23;20164;-60
2022/08/20 04:44:29;;;;;;;14.97;8.63;;;14.10;99.90;;;;;;6116755;23;20233;-60
2022/08/20 04:46:57;;;;;;;17.53;8.67;;;14.10;99.90;;;;;;6094541;23;20203;-60
2022/08/20 04:49:26;;;;;;;14.83;8.40;;;14.10;99.90;;;;;;6095074;23;20279;-60
2022/08/20 04:51:55;;;;;;;17.30;8.80;;;14.10;99.90;;;;;;6093726;23;20631;-60
2022/08/20 04:54:25;;;;;;;17.47;8.40;;;14.10;99.90;;;;;;6094256;23;20778;-60
2022/08/20 04:56:54;;;;;;;18.17;8.57;;;14.00;99.90;;;;;;6095478;23;20517;-60
2022/08/20 04:59:22;;;;;;;14.73;8.50;;;14.10;99.90;;;;;;6115969;23;20245;-60
2022/08/20 05:01:51;;;;;;;16.30;8.97;;;14.10;99.90;;;;;;6093375;23;20168;-60
2022/08/20 05:04:19;;;;;;;17.57;7.93;;;14.10;99.90;;;;;;6094650;23;20174;-60
2022/08/20 05:06:48;;;;;;;19.60;8.37;;;14.10;99.90;;;;;;6093933;23;20239;-60
2022/08/20 05:09:16;;;;;;;21.23;8.90;;;14.10;99.90;;;;;;6093169;23;20183;-60
2022/08/20 05:11:46;;;;;;;19.50;8.67;;;14.10;99.90;;;;;;6094843;23;20280;-60
2022/08/20 05:14:14;;;;;;;16.50;9.23;;;14.10;99.90;;;;;;6093188;23;20646;-60
2022/08/20 05:16:43;;;;;;;22.47;8.77;;;14.10;99.90;;;;;;6094914;23;20278;-60
2022/08/20 05:19:13;;;;;;;24.77;8.87;;;14.20;99.90;;;;;;6093694;23;20266;-60
2022/08/20 05:21:41;;;;;;;15.47;8.27;;;14.20;99.90;;;;;;6094302;23;20183;-60
2022/08/20 05:24:11;;;;;;;14.97;8.57;;;14.20;99.90;;;;;;6093928;23;20590;-60
2022/08/20 05:26:39;;;;;;;18.90;9.10;;;14.30;99.90;;;;;;6092984;23;20199;-60
2022/08/20 05:29:09;;;;;;;23.83;9.73;;;14.40;99.90;;;;;;6094652;23;20737;-60
2022/08/20 05:31:38;;;;;;;26.33;9.60;;;14.50;99.90;;;;;;6092103;23;20638;-60
2022/08/20 05:34:08;;;;;;;28.43;9.97;;;14.60;99.90;;;;;;6093055;23;20220;-60
2022/08/20 05:36:40;;;;;;;25.27;10.97;;;14.70;99.90;;;;;;6093743;23;20256;-60
2022/08/20 05:39:09;;;;;;;23.17;10.03;;;14.80;99.90;;;;;;6094026;23;20639;-60
2022/08/20 05:41:38;;;;;;;26.13;9.33;;;14.80;99.90;;;;;;6093511;23;20634;-60
2022/08/20 05:44:12;;;;;;;28.37;10.73;;;15.00;99.90;;;;;;6093068;23;20206;-60
2022/08/20 05:46:42;;;;;;;26.37;10.27;;;15.10;99.90;;;;;;6094992;23;20190;-60
2022/08/20 05:49:14;;;;;;;19.03;9.53;;;15.20;99.90;;;;;;6094391;23;20678;-60
2022/08/20 05:51:42;;;;;;;19.63;9.57;;;15.30;99.90;;;;;;6092205;23;20266;-60
2022/08/20 05:54:11;;;;;;;22.13;10.70;;;15.50;99.90;;;;;;6092980;23;20685;-60
2022/08/20 05:56:43;;;;;;;24.03;9.30;;;15.60;99.90;;;;;;6092951;23;20173;-60
2022/08/20 05:59:13;;;;;;;21.03;8.90;;;15.70;99.90;;;;;;6091763;23;20195;-60
2022/08/20 06:01:42;;;;;;;25.70;9.17;;;15.90;99.90;;;;;;6091029;23;20261;-60
2022/08/20 06:04:26;;;;;;;20.00;9.00;;;16.00;99.90;;;;;;6092497;23;20258;-60
2022/08/20 06:06:58;;;;;;;18.80;9.60;;;16.20;99.90;;;;;;6093363;23;20155;-60
2022/08/20 06:09:27;;;;;;;22.80;8.77;;;16.30;99.90;;;;;;6092815;23;20173;-60
2022/08/20 06:12:00;;;;;;;19.50;8.27;;;16.50;99.90;;;;;;6091483;23;20239;-60
2022/08/20 06:14:31;;;;;;;19.53;8.27;;;16.70;99.90;;;;;;6092142;23;20168;-60
2022/08/20 06:17:08;;;;;;;16.70;8.63;;;16.90;99.90;;;;;;6093465;23;20835;-60
2022/08/20 06:19:37;;;;;;;19.40;8.67;;;17.00;99.90;;;;;;6093010;23;20204;-60
2022/08/20 06:22:10;;;;;;;19.40;8.27;;;17.20;99.90;;;;;;6092775;23;20165;-60
2022/08/20 06:24:51;;;;;;;21.17;9.00;;;17.30;99.90;;;;;;6093591;23;20174;-61
2022/08/20 06:27:20;;;;;;;22.93;8.97;;;17.40;99.90;;;;;;6092913;23;20568;-60
2022/08/20 06:29:51;;;;;;;18.47;8.63;;;17.40;99.90;;;;;;6092870;23;20700;-60
2022/08/20 06:32:20;;;;;;;18.57;8.10;;;17.50;99.90;;;;;;6116380;23;20246;-60
2022/08/20 06:35:00;;;;;;;19.57;8.07;;;17.60;99.90;;;;;;6093983;23;20174;-60
2022/08/20 06:37:30;;;;;;;15.37;8.07;;;17.80;99.90;;;;;;6092015;23;20226;-60
2022/08/20 06:40:02;;;;;;;16.23;7.57;;;17.80;99.90;;;;;;6094370;23;20246;-60
2022/08/20 06:42:30;;;;;;;17.43;8.07;;;18.00;99.90;;;;;;6093883;23;20156;-60
2022/08/20 06:45:03;;;;;;;17.47;7.60;;;18.10;99.90;;;;;;6092182;23;20271;-60
2022/08/20 06:47:32;;;;;;;12.50;7.67;;;18.20;99.90;;;;;;6093636;23;20152;-60
2022/08/20 06:50:02;;;;;;;12.67;7.53;;;18.40;99.90;;;;;;6093581;23;20213;-60
2022/08/20 06:52:30;;;;;;;19.73;7.93;;;18.50;99.90;;;;;;6092676;23;20195;-60
2022/08/20 06:55:19;;;;;;;15.73;8.30;;;18.60;99.90;;;;;;6082717;23;20159;-60
2022/08/20 06:57:47;;;;;;;14.70;7.30;;;18.70;99.90;;;;;;6093044;23;20630;-60
2022/08/20 07:00:19;;;;;;;12.00;7.37;;;18.80;99.90;;;;;;6115309;23;20273;-61
2022/08/20 07:02:47;;;;;;;12.40;7.37;;;19.00;99.90;;;;;;6116390;23;20661;-60
2022/08/20 07:05:16;;;;;;;16.57;6.93;;;19.20;99.90;;;;;;6086860;23;20179;-61
2022/08/20 07:07:46;;;;;;;14.50;7.30;;;19.30;99.90;;;;;;6089655;23;20171;-60
2022/08/20 07:10:15;;;;;;;17.20;6.93;;;19.30;99.90;;;;;;6092994;23;20642;-61
2022/08/20 07:12:45;;;;;;;16.33;7.37;;;19.30;99.90;;;;;;6092648;23;20662;-60
2022/08/20 07:15:14;;;;;;;18.87;7.47;;;19.50;99.90;;;;;;6092741;23;20198;-61
2022/08/20 07:17:49;;;;;;;16.27;6.67;;;19.70;99.90;;;;;;6086677;23;20187;-61
2022/08/20 07:20:17;;;;;;;14.47;7.40;;;19.70;99.90;;;;;;6092735;23;20159;-61
2022/08/20 07:22:46;;;;;;;16.17;6.80;;;19.80;99.90;;;;;;6094462;23;20206;-60
2022/08/20 07:25:17;;;;;;;12.03;6.70;;;19.80;99.90;;;;;;6117760;23;20266;-60
2022/08/20 07:27:47;;;;;;;15.43;7.70;;;19.90;99.90;;;;;;6095563;23;20164;-60
2022/08/20 07:33:26;;;;;;;16.17;7.20;;;20.20;99.90;;;;;;6095729;23;20479;-60
2022/08/20 07:35:55;;;;;;;13.87;6.40;;;20.50;99.90;;;;;;6093644;23;20174;-61
2022/08/20 07:38:26;;;;;;;13.60;6.30;;;20.70;99.90;;;;;;6093871;23;20163;-60
2022/08/20 07:40:56;;;;;;;14.70;6.63;;;20.90;99.90;;;;;;6093050;23;20239;-61
2022/08/20 07:43:24;;;;;;;18.43;6.73;;;21.00;99.90;;;;;;6091263;23;20168;-61
2022/08/20 07:45:56;;;;;;;14.73;5.67;;;21.00;99.90;;;;;;6093507;23;20174;-60
2022/08/20 07:48:28;;;;;;;11.20;5.73;;;21.10;99.90;;;;;;6095530;23;20493;-60
2022/08/20 07:51:02;;;;;;;16.30;6.00;;;21.30;99.90;;;;;;6095651;23;20195;-60
2022/08/20 07:53:32;;;;;;;13.13;6.00;;;21.30;99.90;;;;;;6116491;23;20203;-60
2022/08/20 07:56:04;;;;;;;10.83;5.47;;;21.30;99.90;;;;;;6092636;23;20604;-60
2022/08/20 07:58:34;;;;;;;13.73;6.20;;;21.40;99.90;;;;;;6092058;23;20271;-60
2022/08/20 08:01:03;;;;;;;9.83;5.37;;;21.40;99.90;;;;;;6094828;23;20169;-60
2022/08/20 08:03:33;;;;;;;11.37;5.70;;;21.60;99.90;;;;;;6117773;23;20285;-60
2022/08/20 08:06:19;;;;;;;10.27;5.20;;;21.70;99.90;;;;;;6115678;23;20172;-60
2022/08/20 08:09:02;;;;;;;9.53;5.57;;;21.70;99.90;;;;;;6092740;23;20207;-60
2022/08/20 08:11:33;;;;;;;9.23;4.87;;;21.90;99.90;;;;;;6094168;23;20276;-60
2022/08/20 08:14:05;;;;;;;10.70;4.73;;;21.90;99.90;;;;;;6093202;23;20202;-60
2022/08/20 08:16:34;;;;;;;7.63;4.63;;;21.90;99.90;;;;;;6095149;23;20696;-60
2022/08/20 08:19:07;;;;;;;15.07;5.40;;;22.00;99.90;;;;;;6093346;23;20228;-60
2022/08/20 08:21:35;;;;;;;13.83;5.70;;;22.00;99.90;;;;;;6093991;23;20254;-60
2022/08/20 08:24:04;;;;;;;6.43;3.90;;;22.00;99.90;;;;;;6093236;23;20261;-60
2022/08/20 08:26:33;;;;;;;12.60;4.50;;;22.20;99.90;;;;;;6094792;23;20636;-60
2022/08/20 08:29:01;;;;;;;13.80;4.00;;;22.40;99.90;;;;;;6094450;23;20170;-60
2022/08/20 08:31:29;;;;;;;12.07;4.40;;;22.50;99.90;;;;;;6093245;23;20213;-60
2022/08/20 08:33:58;;;;;;;10.60;3.77;;;22.60;99.90;;;;;;6092598;23;20490;-60
2022/08/20 08:36:27;;;;;;;7.27;3.07;;;22.60;99.90;;;;;;6093909;23;20270;-61
2022/08/20 08:38:56;;;;;;;12.17;3.80;;;22.80;99.90;;;;;;6093379;23;20195;-60
2022/08/20 08:41:30;;;;;;;12.37;4.10;;;22.80;99.90;;;;;;6095649;23;20162;-60
2022/08/20 08:44:06;;;;;;;10.50;4.07;;;22.80;99.90;;;;;;6094187;23;20171;-60
2022/08/20 08:46:40;;;;;;;7.57;3.97;;;22.90;99.90;;;;;;6094862;23;20194;-60
2022/08/20 08:49:12;;;;;;;9.70;3.53;;;22.90;99.90;;;;;;6092356;23;20204;-60
2022/08/20 08:51:45;;;;;;;11.87;4.00;;;23.10;99.90;;;;;;6090969;23;20508;-61
2022/08/20 08:54:16;;;;;;;9.60;3.40;;;23.40;99.90;;;;;;6090352;23;20225;-60
2022/08/20 08:56:45;;;;;;;7.47;3.57;;;23.60;99.90;;;;;;6094514;23;20626;-60
2022/08/20 08:59:19;;;;;;;11.20;3.53;;;23.70;99.90;;;;;;6092843;23;20533;-60
2022/08/20 09:01:50;;;;;;;12.37;3.10;;;24.00;99.90;;;;;;6086579;23;20225;-60
2022/08/20 09:04:30;;;;;;;8.63;3.03;;;24.00;99.90;;;;;;6093816;23;20167;-60
2022/08/20 09:07:03;;;;;;;11.50;3.70;;;23.90;99.90;;;;;;6090011;23;20182;-60
2022/08/20 09:09:34;;;;;;;7.10;2.40;;;24.10;99.90;;;;;;6089283;23;20402;-60
2022/08/20 09:12:05;;;;;;;6.47;2.53;;;24.20;99.90;;;;;;6087852;23;20187;-60
2022/08/20 09:14:33;;;;;;;7.00;2.93;;;23.90;99.90;;;;;;6089283;23;20246;-60
2022/08/20 09:17:02;;;;;;;4.80;2.60;;;23.80;99.90;;;;;;6113017;23;20200;-60
2022/08/20 09:19:30;;;;;;;10.77;3.10;;;23.60;99.90;;;;;;6089896;23;20279;-60
2022/08/20 09:22:07;;;;;;;12.37;3.43;;;23.30;99.90;;;;;;6091205;23;20245;-60
2022/08/20 09:24:36;;;;;;;11.20;3.57;;;23.40;99.90;;;;;;6088398;23;20775;-60
2022/08/20 09:27:05;;;;;;;7.17;3.30;;;23.80;99.90;;;;;;6089126;23;20263;-60
2022/08/20 09:29:33;;;;;;;8.50;3.20;;;24.70;99.90;;;;;;6089631;23;20679;-60
2022/08/20 09:32:07;;;;;;;12.87;3.20;;;25.20;99.90;;;;;;6088330;23;20193;-61
2022/08/20 09:34:37;;;;;;;9.80;3.25;;;25.30;99.90;;;;;;6089331;23;20169;-60
2022/08/20 09:37:07;;;;;;;7.22;3.00;;;25.30;99.90;;;;;;6088715;23;20255;-60
2022/08/20 09:39:36;;;;;;;6.93;2.90;;;24.80;99.90;;;;;;6088655;23;20165;-60
2022/08/20 09:42:08;;;;;;;4.53;2.27;;;24.40;99.90;;;;;;6090246;23;20349;-60
2022/08/20 09:44:36;;;;;;;6.13;2.53;;;24.20;99.90;;;;;;6092017;23;20654;-60
2022/08/20 09:47:05;;;;;;;8.63;2.93;;;23.80;99.90;;;;;;6093011;23;20626;-60
2022/08/20 09:49:35;;;;;;;6.23;2.73;;;23.60;99.90;;;;;;6093277;23;20231;-60
2022/08/20 09:52:07;;;;;;;5.20;2.50;;;23.80;99.90;;;;;;6089461;23;20209;-60
2022/08/20 09:54:36;;;;;;;8.87;2.87;;;23.70;99.90;;;;;;6089715;23;20186;-60
2022/08/20 09:57:07;;;;;;;14.97;2.47;;;23.50;99.90;;;;;;6090883;23;20254;-60
2022/08/20 09:59:36;;;;;;;5.53;2.53;;;23.90;99.90;;;;;;6092758;23;20876;-60
2022/08/20 10:02:05;;;;;;;10.20;3.30;;;24.70;99.90;;;;;;6091349;23;20176;-61
2022/08/20 10:04:33;;;;;;;7.20;2.72;;;25.20;99.90;;;;;;6092377;23;20258;-60
2022/08/20 10:07:02;;;;;;;8.45;2.67;;;25.40;99.90;;;;;;6090187;23;20258;-61
2022/08/20 10:09:34;;;;;;;6.53;2.63;;;25.50;99.90;;;;;;6093409;23;20265;-60
2022/08/20 10:12:03;;;;;;;8.63;2.63;;;25.50;99.90;;;;;;6091359;23;20278;-60
2022/08/20 10:14:31;;;;;;;6.18;2.80;;;25.90;99.90;;;;;;6094250;23;20794;-60
2022/08/20 10:17:01;;;;;;;6.38;2.50;;;25.90;99.90;;;;;;6092128;23;20563;-61
2022/08/20 10:19:30;;;;;;;6.90;3.00;;;26.00;99.90;;;;;;6094912;23;20202;-60
2022/08/20 10:21:59;;;;;;;8.10;2.70;;;26.30;99.90;;;;;;6090774;23;20242;-61
2022/08/20 10:24:29;;;;;;;5.78;2.63;;;26.40;99.90;;;;;;6091572;23;20610;-60
2022/08/20 10:27:00;;;;;;;7.93;2.70;;;25.70;99.90;;;;;;6091802;23;20174;-60
2022/08/20 10:29:30;;;;;;;6.70;2.90;;;25.00;99.90;;;;;;6093466;23;20166;-60
2022/08/20 10:32:10;;;;;;;8.57;2.77;;;24.40;99.90;;;;;;6092407;23;20632;-60
2022/08/20 10:34:40;;;;;;;7.70;2.70;;;24.00;99.90;;;;;;6092110;23;20186;-60
2022/08/20 10:37:09;;;;;;;5.47;2.57;;;23.80;99.90;;;;;;6088383;23;20615;-60
2022/08/20 10:39:40;;;;;;;6.80;2.47;;;23.70;99.90;;;;;;6091341;23;20231;-60
2022/08/20 10:42:10;;;;;;;5.93;2.30;;;23.80;99.90;;;;;;6090616;23;20168;-60
2022/08/20 10:44:38;;;;;;;6.30;2.93;;;24.00;99.90;;;;;;6092896;23;20251;-60
2022/08/20 10:47:18;;;;;;;5.43;2.50;;;24.10;99.90;;;;;;6092011;23;20800;-60
2022/08/20 10:49:48;;;;;;;9.83;2.50;;;23.80;99.90;;;;;;6094654;23;20230;-60
2022/08/20 10:52:16;;;;;;;6.73;2.10;;;23.30;99.90;;;;;;6089610;23;20199;-60
2022/08/20 10:54:45;;;;;;;3.97;2.20;;;23.30;99.90;;;;;;6092678;23;20250;-60
2022/08/20 10:57:17;;;;;;;4.77;2.20;;;23.60;99.90;;;;;;6095355;23;20228;-60
2022/08/20 10:59:48;;;;;;;6.73;2.13;;;24.50;99.90;;;;;;6096141;23;20642;-60
2022/08/20 11:02:17;;;;;;;5.60;2.17;;;25.30;99.90;;;;;;6095784;23;20189;-60
2022/08/20 11:04:46;;;;;;;6.15;1.90;;;26.00;99.90;;;;;;6095211;23;20169;-61
2022/08/20 11:07:17;;;;;;;5.72;2.00;;;26.40;99.90;;;;;;6094710;23;20542;-60
2022/08/20 11:09:47;;;;;;;3.28;1.98;;;26.80;99.90;;;;;;6093109;23;20241;-60
2022/08/20 11:12:18;;;;;;;4.07;1.95;;;27.00;99.90;;;;;;6095246;23;20181;-60
2022/08/20 11:14:48;;;;;;;3.50;1.90;;;26.90;99.90;;;;;;6095460;23;20649;-60
2022/08/20 11:17:20;;;;;;;2.30;1.67;;;26.40;99.90;;;;;;6094873;23;20199;-60
2022/08/20 11:19:49;;;;;;;1.95;1.70;;;26.60;99.90;;;;;;6095489;23;20250;-60
2022/08/20 11:22:17;;;;;;;3.83;2.00;;;26.40;99.90;;;;;;6095023;23;20191;-60
2022/08/20 11:24:46;;;;;;;3.00;1.65;;;25.50;99.90;;;;;;6095548;23;20608;-60
2022/08/20 11:27:21;;;;;;;3.45;1.80;;;25.20;99.90;;;;;;6092666;23;20680;-61
2022/08/20 11:29:50;;;;;;;3.65;1.92;;;25.50;99.90;;;;;;6092045;23;20174;-60
2022/08/20 11:32:19;;;;;;;4.78;1.80;;;26.10;99.90;;;;;;6091976;23;20171;-60
2022/08/20 11:34:47;;;;;;;3.17;1.92;;;26.50;99.90;;;;;;6093876;23;20674;-60
2022/08/20 11:37:17;;;;;;;4.18;1.90;;;26.90;99.90;;;;;;6092745;23;20269;-60
2022/08/20 11:39:46;;;;;;;4.63;1.90;;;27.10;99.90;;;;;;6093279;23;20175;-60
2022/08/20 11:42:14;;;;;;;4.25;1.80;;;27.20;99.90;;;;;;6094984;23;20621;-60
2022/08/20 11:44:44;;;;;;;3.55;1.95;;;27.10;99.90;;;;;;6093923;23;20198;-60
2022/08/20 11:47:21;;;;;;;3.50;1.60;;;27.20;99.90;;;;;;6093118;23;20268;-60
2022/08/20 11:49:58;;;;;;;2.17;1.98;;;27.50;99.90;;;;;;6094965;23;20184;-60
2022/08/20 11:52:26;;;;;;;2.45;1.50;;;27.80;99.30;;;;;;6094604;23;20253;-60
2022/08/20 11:54:56;;;;;;;2.10;1.58;;;27.80;99.20;;;;;;6093347;23;20221;-60
2022/08/20 11:57:28;;;;;;;1.83;1.50;;;27.90;99.20;;;;;;6096334;23;20170;-60
2022/08/20 12:00:00;;;;;;;4.80;1.90;;;28.20;99.70;;;;;;6093402;23;20272;-60
2022/08/20 12:02:29;;;;;;;5.55;2.13;;;28.00;99.90;;;;;;6095544;23;20169;-60
2022/08/20 12:04:58;;;;;;;2.50;1.60;;;27.90;99.90;;;;;;6094863;23;20170;-60
2022/08/20 12:07:26;;;;;;;3.72;1.77;;;27.90;99.90;;;;;;6091755;23;20175;-60
2022/08/20 12:09:55;;;;;;;7.45;2.03;;;28.10;99.90;;;;;;6094228;23;20241;-60
2022/08/20 12:12:23;;;;;;;3.78;2.10;;;28.10;99.90;;;;;;6116791;23;20501;-60
2022/08/20 12:14:52;;;;;;;5.18;2.30;;;27.90;99.30;;;;;;6092683;23;20194;-60
2022/08/20 12:17:26;;;;;;;4.80;1.85;;;26.90;99.80;;;;;;6092848;23;20474;-60
2022/08/20 12:19:56;;;;;;;4.37;2.20;;;26.30;99.90;;;;;;6094383;23;20244;-59
2022/08/20 12:22:25;;;;;;;5.17;1.97;;;25.90;99.90;;;;;;6094801;23;20167;-59
2022/08/20 12:24:54;;;;;;;4.13;1.93;;;25.70;99.90;;;;;;6095065;23;20191;-60
2022/08/20 12:27:26;;;;;;;1.63;1.60;;;25.70;99.90;;;;;;6090071;23;20199;-59
2022/08/20 12:29:56;;;;;;;2.83;1.70;;;26.00;99.90;;;;;;6093865;23;20588;-59
2022/08/20 12:32:27;;;;;;;3.27;2.33;;;26.40;99.90;;;;;;6093642;23;20172;-59
2022/08/20 12:34:56;;;;;;;3.75;2.25;;;27.00;99.90;;;;;;6092431;23;20283;-59
2022/08/20 12:37:27;;;;;;;3.13;1.77;;;27.20;99.90;;;;;;6094538;23;20192;-59
2022/08/20 12:39:57;;;;;;;3.60;1.90;;;27.40;99.90;;;;;;6094217;23;20251;-59
2022/08/20 12:42:28;;;;;;;6.33;1.93;;;27.10;99.90;;;;;;6090903;23;20552;-59
2022/08/20 12:44:56;;;;;;;3.60;1.80;;;27.00;99.90;;;;;;6091465;23;20199;-59
2022/08/20 12:47:28;;;;;;;4.57;1.80;;;27.10;99.90;;;;;;6094756;23;20886;-59
2022/08/20 12:50:00;;;;;;;3.20;1.77;;;27.10;99.90;;;;;;6095964;23;20235;-59
2022/08/20 12:52:30;;;;;;;3.47;1.80;;;26.70;99.90;;;;;;6094711;23;20178;-59
2022/08/20 12:54:59;;;;;;;3.23;1.70;;;26.40;99.90;;;;;;6093824;23;20187;-59
2022/08/20 12:57:29;;;;;;;2.70;2.00;;;26.40;99.90;;;;;;6094416;23;20645;-59
2022/08/20 12:59:59;;;;;;;2.20;1.80;;;26.20;99.90;;;;;;6093066;23;20171;-59
2022/08/20 13:02:32;;;;;;;3.90;1.70;;;26.20;99.90;;;;;;6095051;23;20544;-59
2022/08/20 13:05:00;;;;;;;2.53;1.67;;;26.00;99.90;;;;;;6094037;23;20243;-59